Okemos, Michigan
Current Conditions -  °F | °C
As of 5:10 PM on Monday 20 Oct 2014 (Local Time) from KLAN Reporting Station
Moderate Rain Moderate Rain  
Wind Chill: 55°   Ceiling: 2800
Heat Index: 55°   Visibility: 3mi
Dew Point: 50°   Wind: 3mph
Humidity: 83%   Direction: 280°W
Pressure: 29.79"   Gusts: NA
Location:  42.72°N, 84.43°W
Report Text: KLAN 202110Z 28003KT 3SM R28L/5000VP6000FT RA OVC028 13/10 A2979 RMK AO2 RAB2058 P0003 T01280100
Loading
Personal Weather Stations






























Interactive Weather Map
Tropical Storm Tracking
New forecast layout! Learn more

10-Day Weather Forecast

Advertisements
Track Severe Weather on mobile